Time;durP1;ratioP1;P1;durP2;ratioP2;P2;SDS_P1;SDS_P2;PMS_P1;PMS_P2;Temp;Humidity;BMP_temperature;BMP_pressure;BME280_temperature;BME280_humidity;BME280_pressure;Samples;Min_cycle;Max_cycle;Signal;HPM_P1;HPM_P2
2022/11/16 00:01:22;;;;;;;11.10;7.50;;;;;;;10.73;100.00;99665.13;5113783;28;20350;-87
2022/11/16 00:03:49;;;;;;;12.18;8.35;;;;;;;10.71;100.00;99660.75;5131049;27;20043;-86
2022/11/16 00:06:15;;;;;;;11.70;8.03;;;;;;;10.70;100.00;99650.16;5130767;27;20069;-87
2022/11/16 00:08:44;;;;;;;11.20;7.72;;;;;;;10.71;100.00;99649.09;5113327;28;20044;-86
2022/11/16 00:11:12;;;;;;;11.88;7.63;;;;;;;10.71;100.00;99657.25;5131009;27;20069;-86
2022/11/16 00:13:38;;;;;;;10.48;7.50;;;;;;;10.69;100.00;99667.53;5130955;27;20058;-86
2022/11/16 00:16:04;;;;;;;12.57;7.65;;;;;;;10.67;100.00;99667.75;5130304;27;20031;-86
2022/11/16 00:18:30;;;;;;;14.80;8.70;;;;;;;10.64;100.00;99667.41;5131079;27;20038;-87
2022/11/16 00:20:56;;;;;;;13.50;8.45;;;;;;;10.62;100.00;99659.53;5113465;28;20039;-86
2022/11/16 00:23:21;;;;;;;14.47;8.47;;;;;;;10.61;100.00;99657.88;5113296;28;20032;-86
2022/11/16 00:25:48;;;;;;;14.93;8.40;;;;;;;10.63;100.00;99663.06;5130465;27;20059;-86
2022/11/16 00:28:13;;;;;;;14.82;8.85;;;;;;;10.62;100.00;99664.13;5130380;27;20040;-86
2022/11/16 00:30:39;;;;;;;14.30;8.73;;;;;;;10.60;100.00;99663.53;5114541;28;20039;-86
2022/11/16 00:33:06;;;;;;;12.25;9.35;;;;;;;10.60;100.00;99649.97;5113949;28;20452;-86
2022/11/16 00:35:38;;;;;;;14.18;9.52;;;;;;;10.58;100.00;99646.69;5113636;28;20493;-86
2022/11/16 00:38:03;;;;;;;15.67;9.27;;;;;;;10.59;100.00;99632.91;5113169;28;20031;-85
2022/11/16 00:40:31;;;;;;;13.43;8.93;;;;;;;10.60;100.00;99634.53;5130338;27;20047;-86
2022/11/16 00:42:56;;;;;;;13.45;8.68;;;;;;;10.58;100.00;99631.25;5112959;28;20028;-85
2022/11/16 00:45:22;;;;;;;13.63;8.43;;;;;;;10.59;100.00;99616.63;5096058;28;20075;-85
2022/11/16 00:47:47;;;;;;;12.57;8.90;;;;;;;10.58;100.00;99625.81;5130660;27;20039;-86
2022/11/16 00:50:13;;;;;;;12.43;8.57;;;;;;;10.59;100.00;99646.47;5129977;27;20031;-86
2022/11/16 00:52:41;;;;;;;13.27;8.67;;;;;;;10.60;100.00;99656.25;5128993;27;20027;-86
2022/11/16 00:55:10;;;;;;;15.48;8.50;;;;;;;10.58;100.00;99649.41;5111639;28;20046;-86
2022/11/16 00:57:35;;;;;;;15.02;9.20;;;;;;;10.58;100.00;99649.41;5113947;28;20502;-86
2022/11/16 01:00:03;;;;;;;13.83;8.33;;;;;;;10.57;100.00;99655.91;5113208;28;20051;-85
2022/11/16 01:02:28;;;;;;;16.30;9.40;;;;;;;10.56;100.00;99649.66;5112780;28;20105;-86
2022/11/16 01:04:53;;;;;;;13.93;9.23;;;;;;;10.55;100.00;99644.47;5096320;28;20044;-85
2022/11/16 01:07:19;;;;;;;15.88;8.48;;;;;;;10.55;100.00;99639.88;5112501;28;20032;-86
2022/11/16 01:09:44;;;;;;;13.57;8.50;;;;;;;10.56;100.00;99646.13;5095793;28;20044;-85
2022/11/16 01:12:11;;;;;;;13.57;8.40;;;;;;;10.56;100.00;99641.53;5095765;28;20047;-86
2022/11/16 01:14:41;;;;;;;14.30;8.88;;;;;;;10.54;100.00;99627.41;5112750;28;20059;-86
2022/11/16 01:17:10;;;;;;;15.60;8.95;;;;;;;10.52;100.00;99630.31;5130249;28;20035;-86
2022/11/16 01:19:36;;;;;;;17.20;9.07;;;;;;;10.53;100.00;99631.16;5112906;28;20035;-86
2022/11/16 01:22:01;;;;;;;15.93;8.82;;;;;;;10.57;100.00;99628.78;5112658;28;20509;-86
2022/11/16 01:24:26;;;;;;;14.87;8.90;;;;;;;10.59;100.00;99623.94;5112606;28;20036;-86
2022/11/16 01:26:56;;;;;;;11.73;8.23;;;;;;;10.59;100.00;99622.03;5096483;28;20040;-86
2022/11/16 01:29:26;;;;;;;15.05;9.23;;;;;;;10.61;100.00;99621.81;5113210;28;20048;-86
2022/11/16 01:31:52;;;;;;;16.42;7.95;;;;;;;10.62;100.00;99618.84;5112339;28;20138;-86
2022/11/16 01:34:17;;;;;;;15.90;8.67;;;;;;;10.63;100.00;99612.34;5095612;28;20063;-86
2022/11/16 01:36:43;;;;;;;15.05;8.40;;;;;;;10.65;100.00;99610.22;5113857;28;20046;-86
2022/11/16 01:39:10;;;;;;;16.37;9.07;;;;;;;10.66;100.00;99608.34;5129839;28;20040;-87
2022/11/16 01:41:36;;;;;;;13.27;8.82;;;;;;;10.66;100.00;99611.06;5112718;28;20039;-86
2022/11/16 01:44:31;;;;;;;12.95;8.75;;;;;;;10.67;100.00;99612.66;5112118;28;20046;-86
2022/11/16 01:46:57;;;;;;;13.37;8.00;;;;;;;10.70;100.00;99614.88;5086394;28;20044;-86
2022/11/16 01:49:26;;;;;;;14.65;8.75;;;;;;;10.70;100.00;99613.03;5112309;28;20036;-86
2022/11/16 01:51:58;;;;;;;13.60;8.65;;;;;;;10.69;100.00;99610.56;5129528;28;20044;-86
2022/11/16 01:54:24;;;;;;;13.27;8.65;;;;;;;10.69;100.00;99608.66;5112065;28;20048;-86
2022/11/16 01:56:51;;;;;;;15.32;8.60;;;;;;;10.70;100.00;99612.19;5112461;28;20207;-86
2022/11/16 01:59:19;;;;;;;15.43;9.10;;;;;;;10.71;100.00;99609.22;5113344;28;20039;-86
2022/11/16 02:01:45;;;;;;;13.98;9.00;;;;;;;10.71;100.00;99617.34;5112340;28;20188;-87
2022/11/16 02:04:12;;;;;;;13.33;9.00;;;;;;;10.70;100.00;99615.72;5112217;28;20114;-86
2022/11/16 02:06:58;;;;;;;15.18;9.63;;;;;;;10.68;100.00;99603.47;5115652;28;20043;-86
2022/11/16 02:09:53;;;;;;;13.77;8.70;;;;;;;10.73;100.00;99605.44;5116542;28;20403;-86
2022/11/16 02:12:47;;;;;;;14.20;9.20;;;;;;;10.73;100.00;99608.16;5116988;28;20032;-86
2022/11/16 02:15:41;;;;;;;15.18;9.15;;;;;;;10.70;100.00;99606.75;5111332;28;20036;-87
2022/11/16 02:18:07;;;;;;;16.30;8.50;;;;;;;10.73;100.00;99605.44;5133289;27;20063;-86
2022/11/16 02:20:48;;;;;;;15.35;9.57;;;;;;;10.74;100.00;99601.66;5116501;28;20031;-86
2022/11/16 02:23:45;;;;;;;15.10;9.18;;;;;;;10.74;100.00;99607.09;5115349;28;20039;-86
2022/11/16 02:26:35;;;;;;;16.02;8.63;;;;;;;10.74;100.00;99601.66;5115700;28;20032;-86
2022/11/16 02:29:22;;;;;;;16.43;9.20;;;;;;;10.75;100.00;99606.84;5115315;28;20054;-86
2022/11/16 02:31:57;;;;;;;14.45;9.32;;;;;;;10.73;100.00;99608.16;5115708;28;20039;-86
2022/11/16 02:34:29;;;;;;;16.58;8.32;;;;;;;10.70;100.00;99598.63;5115759;28;20042;-85
2022/11/16 02:36:57;;;;;;;10.38;6.68;;;;;;;10.66;100.00;99606.44;5115140;28;20051;-84
2022/11/16 02:39:26;;;;;;;12.52;7.90;;;;;;;10.62;100.00;99612.59;5115353;28;20407;-85
2022/11/16 02:41:54;;;;;;;12.50;7.93;;;;;;;10.56;100.00;99602.75;5133178;27;20546;-84
2022/11/16 02:44:34;;;;;;;10.25;7.35;;;;;;;10.52;100.00;99611.34;5116516;28;20039;-85
2022/11/16 02:47:04;;;;;;;12.85;7.97;;;;;;;10.52;100.00;99605.09;5132697;27;20054;-85
2022/11/16 02:49:38;;;;;;;16.95;8.25;;;;;;;10.51;100.00;99614.31;5115136;28;20156;-85
2022/11/16 02:52:03;;;;;;;9.90;7.40;;;;;;;10.48;100.00;99621.06;5132571;27;20035;-84
2022/11/16 02:54:29;;;;;;;12.20;7.97;;;;;;;10.48;100.00;99626.47;5131945;27;20117;-85
2022/11/16 02:57:02;;;;;;;16.95;8.27;;;;;;;10.48;100.00;99625.63;5115139;28;20040;-85
2022/11/16 06:43:37;;;;;;;9.60;4.07;;;;;;;7.47;100.00;99750.34;5121560;27;20134;-90
2022/11/16 06:46:12;;;;;;;11.60;4.70;;;;;;;7.52;100.00;99755.88;5115403;28;20051;-96
2022/11/16 06:48:48;;;;;;;11.18;4.85;;;;;;;7.47;100.00;99761.13;5124212;28;20031;-96
2022/11/16 06:51:42;;;;;;;12.77;4.57;;;;;;;7.38;100.00;99757.88;5126579;28;20058;-96
2022/11/16 06:54:21;;;;;;;11.50;4.68;;;;;;;7.34;100.00;99755.84;5112862;28;20059;-96
2022/11/16 06:57:23;;;;;;;14.13;4.68;;;;;;;7.38;100.00;99767.84;5147965;27;20039;-96
2022/11/16 07:00:13;;;;;;;14.45;5.18;;;;;;;7.36;100.00;99776.16;5117545;28;20395;-92
2022/11/16 07:02:45;;;;;;;18.27;4.80;;;;;;;7.28;100.00;99759.41;5116287;28;20428;-92
2022/11/16 07:05:32;;;;;;;15.77;5.10;;;;;;;7.28;100.00;99772.91;5115646;28;20092;-92
2022/11/16 07:08:25;;;;;;;12.52;4.25;;;;;;;7.30;100.00;99778.94;5115845;28;20047;-93
2022/11/16 07:11:02;;;;;;;11.30;4.38;;;;;;;7.27;100.00;99776.66;5104662;28;20122;-91
2022/11/16 07:13:30;;;;;;;14.32;4.55;;;;;;;7.26;100.00;99781.22;5118661;27;20472;-91
2022/11/16 07:16:22;;;;;;;13.57;4.78;;;;;;;7.23;100.00;99778.97;5114575;28;20043;-90
2022/11/16 07:18:48;;;;;;;17.80;4.95;;;;;;;7.20;100.00;99780.25;5117713;28;20048;-92
2022/11/16 07:21:25;;;;;;;;;;;;;;;;;;;;;
2022/11/16 07:24:15;;;;;;;21.83;5.87;;;;;;;7.37;100.00;99793.19;5119092;28;20027;-93
2022/11/16 07:26:45;;;;;;;23.05;6.50;;;;;;;7.34;100.00;99789.06;5116013;28;20479;-92
2022/11/16 07:32:15;;;;;;;21.13;8.48;;;;;;;7.36;100.00;99797.75;5111054;28;20052;-89
2022/11/16 07:34:44;;;;;;;24.38;8.68;;;;;;;7.35;100.00;99806.91;5131132;27;20102;-89
2022/11/16 07:37:43;;;;;;;29.10;9.17;;;;;;;7.33;100.00;99803.59;5130950;27;20063;-91
2022/11/16 07:40:28;;;;;;;;;;;;;;;;;;;;;
2022/11/16 07:43:20;;;;;;;25.13;8.40;;;;;;;7.33;100.00;99800.88;5116667;28;20053;-89
2022/11/16 07:45:57;;;;;;;25.83;8.93;;;;;;;7.38;100.00;99805.63;5131422;27;20047;-89
2022/11/16 07:48:35;;;;;;;26.45;7.18;;;;;;;7.35;100.00;99811.47;5099358;28;20050;-89
2022/11/16 07:51:32;;;;;;;29.77;8.80;;;;;;;7.38;100.00;99816.41;5114683;28;20043;-88
2022/11/16 07:54:08;;;;;;;24.45;7.72;;;;;;;7.38;100.00;99817.25;5106956;28;20110;-89
2022/11/16 07:56:44;;;;;;;23.90;7.63;;;;;;;7.38;100.00;99816.41;5098083;28;20039;-88
2022/11/16 07:59:14;;;;;;;31.05;7.60;;;;;;;7.45;100.00;99824.47;5097241;28;20043;-89
2022/11/16 08:01:58;;;;;;;;;;;;;;;;;;;;;
2022/11/16 08:07:58;;;;;;;23.45;6.72;;;;;;;7.46;100.00;99836.94;5052041;28;20463;-88
2022/11/16 08:10:28;;;;;;;20.77;6.07;;;;;;;7.41;100.00;99831.34;5106940;28;20073;-89
2022/11/16 08:12:57;;;;;;;17.48;4.95;;;;;;;7.47;100.00;99838.56;5113998;28;20043;-88
2022/11/16 08:15:34;;;;;;;19.90;5.50;;;;;;;7.44;100.00;99830.91;5131023;27;20130;-88
2022/11/16 08:18:10;;;;;;;18.17;4.80;;;;;;;7.47;100.00;99833.16;5130765;27;20043;-88
2022/11/16 08:21:01;;;;;;;14.45;4.88;;;;;;;7.46;100.00;99829.66;5097673;28;20032;-88
2022/11/16 08:23:39;;;;;;;18.58;4.78;;;;;;;7.51;100.00;99834.38;5106511;28;20040;-88
2022/11/16 08:26:30;;;;;;;17.50;4.45;;;;;;;7.52;100.00;99838.75;5113300;28;20445;-88
2022/11/16 08:29:07;;;;;;;17.50;4.75;;;;;;;7.50;100.00;99830.88;5113008;28;20126;-88
2022/11/16 08:31:43;;;;;;;15.10;3.97;;;;;;;7.53;100.00;99829.59;5114959;28;20035;-87
2022/11/16 08:34:09;;;;;;;21.23;4.90;;;;;;;7.60;100.00;99835.75;5130216;27;20031;-88
2022/11/16 08:36:37;;;;;;;15.93;4.18;;;;;;;7.62;100.00;99824.72;5130433;27;20088;-87
2022/11/16 08:39:10;;;;;;;15.38;4.32;;;;;;;7.68;100.00;99823.88;5113306;28;20066;-88
2022/11/16 08:41:40;;;;;;;17.50;3.73;;;;;;;7.67;100.00;99824.91;5096431;28;20035;-88
2022/11/16 08:44:16;;;;;;;;;;;;;;;;;;;;;
2022/11/16 08:46:50;;;;;;;16.20;3.72;;;;;;;7.61;100.00;99821.22;5114800;28;20058;-88
2022/11/16 08:49:25;;;;;;;6.60;3.50;;;;;;;7.63;100.00;99832.63;5112852;28;20039;-88
2022/11/16 08:51:54;;;;;;;20.92;3.70;;;;;;;7.63;100.00;99839.88;5114606;28;20031;-88
2022/11/16 08:54:40;;;;;;;;;;;;;;;;;;;;;
2022/11/16 08:57:10;;;;;;;20.20;3.67;;;;;;;7.66;100.00;99837.59;5114269;28;20128;-88
2022/11/16 08:59:57;;;;;;;13.10;3.22;;;;;;;7.69;100.00;99845.25;5113954;28;20118;-89
2022/11/16 09:02:36;;;;;;;19.92;3.88;;;;;;;7.75;100.00;99838.13;5127556;28;20070;-89
2022/11/16 09:05:10;;;;;;;22.42;3.40;;;;;;;7.74;100.00;99831.06;5095860;28;20039;-89
2022/11/16 09:07:52;;;;;;;;;;;;;;;;;;;;;
2022/11/16 09:10:49;;;;;;;12.35;3.67;;;;;;;7.86;100.00;99847.38;5128157;27;20039;-89
2022/11/16 09:13:17;;;;;;;15.20;3.25;;;;;;;7.83;100.00;99845.94;5101403;28;20463;-89
2022/11/16 09:15:48;;;;;;;12.10;3.10;;;;;;;7.89;100.00;99846.94;5099419;28;20043;-88
2022/11/16 09:18:18;;;;;;;12.57;2.75;;;;;;;7.90;100.00;99852.13;5134285;27;20039;-88
2022/11/16 09:20:46;;;;;;;13.77;2.73;;;;;;;7.95;100.00;99854.13;5116843;28;20123;-89
2022/11/16 09:23:22;;;;;;;18.10;3.17;;;;;;;7.97;100.00;99851.22;5117992;28;20031;-88
2022/11/16 09:25:58;;;;;;;15.25;2.75;;;;;;;8.02;100.00;99854.09;5117547;28;20042;-88
2022/11/16 09:28:49;;;;;;;13.10;2.60;;;;;;;8.01;100.00;99858.66;5134039;27;20028;-89
2022/11/16 09:31:27;;;;;;;;;;;;;;;;;;;;;
2022/11/16 09:34:08;;;;;;;11.30;2.10;;;;;;;8.13;100.00;99856.03;5118940;28;20043;-89
2022/11/16 09:36:44;;;;;;;12.68;2.58;;;;;;;8.12;100.00;99845.47;5101145;28;20031;-89
2022/11/16 09:39:21;;;;;;;9.10;2.50;;;;;;;8.17;100.00;99851.03;5100455;28;20131;-89
2022/11/16 09:42:07;;;;;;;;;;;;;;;;;;;;;
2022/11/16 09:44:45;;;;;;;13.88;2.10;;;;;;;8.37;100.00;99859.75;5115826;28;20051;-88
2022/11/16 09:47:28;;;;;;;;;;;;;;;;;;;;;
2022/11/16 09:50:07;;;;;;;10.05;2.17;;;;;;;8.37;100.00;99851.63;5118333;28;20034;-88
2022/11/16 09:52:59;;;;;;;8.90;2.28;;;;;;;8.43;100.00;99858.03;5133381;27;20110;-88
2022/11/16 09:55:48;;;;;;;14.65;1.70;;;;;;;8.45;100.00;99860.53;5116367;28;20063;-88
2022/11/16 09:58:23;;;;;;;9.30;1.70;;;;;;;8.51;100.00;99867.75;5133248;27;20376;-88
2022/11/16 10:01:07;;;;;;;;;;;;;;;;;;;;;
2022/11/16 10:04:01;;;;;;;11.60;2.00;;;;;;;8.48;100.00;99851.97;5117892;28;20031;-87
2022/11/16 10:07:18;;;;;;;;;;;;;;;;;;;;;
2022/11/16 10:09:56;;;;;;;9.75;1.70;;;;;;;8.58;100.00;99861.19;5094486;28;20052;-88
2022/11/16 10:12:45;;;;;;;10.20;1.98;;;;;;;8.62;100.00;99858.84;5133135;27;20054;-88
2022/11/16 10:16:01;;;;;;;5.30;0.97;;;;;;;8.68;100.00;99857.97;5133919;27;20042;-88
2022/11/16 10:18:41;;;;;;;10.48;1.70;;;;;;;8.80;100.00;99858.03;5115701;28;20032;-87
2022/11/16 10:21:20;;;;;;;;;;;;;;;;;;;;;
2022/11/16 10:24:28;;;;;;;10.00;1.80;;;;;;;8.99;100.00;99860.69;5117280;28;20043;-89
2022/11/16 10:27:36;;;;;;;;;;;;;;;;;;;;;
2022/11/16 10:30:16;;;;;;;8.10;1.60;;;;;;;9.13;100.00;99849.44;5117990;28;20050;-87
2022/11/16 10:32:48;;;;;;;14.15;1.60;;;;;;;9.27;100.00;99862.78;5132923;27;20074;-87
2022/11/16 10:35:28;;;;;;;6.60;1.20;;;;;;;9.31;100.00;99858.56;5115940;28;20039;-87
2022/11/16 10:37:57;;;;;;;13.80;1.40;;;;;;;9.37;100.00;99851.41;5133010;27;20413;-87
2022/11/16 10:40:41;;;;;;;8.15;1.40;;;;;;;9.47;100.00;99855.19;5132818;27;20361;-87
2022/11/16 10:43:24;;;;;;;11.60;1.47;;;;;;;9.58;100.00;99864.41;5115483;27;20038;-87
2022/11/16 10:46:32;;;;;;;7.57;0.90;;;;;;;9.72;100.00;99859.59;5114652;28;20403;-87
2022/11/16 10:49:28;;;;;;;7.20;1.17;;;;;;;9.97;100.00;99858.53;5115008;28;20057;-89
2022/11/16 10:52:13;;;;;;;;;;;;;;;;;;;;;
2022/11/16 10:54:41;;;;;;;10.65;1.10;;;;;;;10.50;100.00;99854.03;5116271;28;20468;-87
2022/11/16 10:57:25;;;;;;;6.03;1.03;;;;;;;10.56;100.00;99850.38;5115997;28;20403;-88
2022/11/16 11:00:02;;;;;;;8.35;0.95;;;;;;;10.49;100.00;99849.66;5114595;28;20084;-88
2022/11/16 11:02:35;;;;;;;8.07;1.00;;;;;;;10.53;100.00;99856.28;5099071;28;20047;-88
2022/11/16 11:05:14;;;;;;;6.88;1.00;;;;;;;10.83;100.00;99861.47;5116265;28;20031;-88
2022/11/16 11:07:58;;;;;;;;;;;;;;;;;;;;;
2022/11/16 11:10:32;;;;;;;7.67;1.03;;;;;;;11.66;97.13;99847.50;5116761;28;20043;-87
2022/11/16 11:13:08;;;;;;;10.20;1.25;;;;;;;13.45;93.30;99841.84;5115461;28;20027;-88
2022/11/16 11:15:52;;;;;;;5.50;0.82;;;;;;;14.44;81.74;99833.25;5132136;27;20108;-88
2022/11/16 11:18:27;;;;;;;5.70;0.80;;;;;;;13.87;84.03;99843.84;5131960;27;20459;-88
2022/11/16 11:21:08;;;;;;;6.75;0.93;;;;;;;13.08;86.97;99832.50;5114955;28;20047;-87
2022/11/16 11:24:02;;;;;;;6.77;1.00;;;;;;;12.65;91.67;99847.81;5114409;28;20040;-87
2022/11/16 11:26:33;;;;;;;5.18;0.98;;;;;;;12.47;87.79;99838.06;5111280;28;20115;-87
2022/11/16 11:29:18;;;;;;;9.43;1.30;;;;;;;12.31;88.48;99844.38;5114462;28;20050;-87
2022/11/16 11:31:52;;;;;;;4.22;0.90;;;;;;;11.97;87.39;99837.09;5115472;28;20089;-87
2022/11/16 11:34:32;;;;;;;8.00;1.60;;;;;;;11.66;90.05;99831.19;5115166;28;20093;-87
2022/11/16 11:37:08;;;;;;;7.17;0.80;;;;;;;11.45;88.72;99827.31;5114671;28;20039;-87
2022/11/16 11:39:41;;;;;;;7.32;1.00;;;;;;;11.38;91.76;99822.06;5115918;28;20043;-86
2022/11/16 11:42:13;;;;;;;8.75;1.00;;;;;;;11.44;91.16;99828.41;5131516;27;20447;-86
2022/11/16 11:44:53;;;;;;;8.82;1.20;;;;;;;11.40;91.64;99819.09;5114049;28;20062;-87
2022/11/16 11:47:40;;;;;;;5.00;0.80;;;;;;;11.46;92.87;99817.28;5132039;27;20040;-88
2022/11/16 11:50:49;;;;;;;7.70;1.20;;;;;;;11.39;90.96;99815.53;5114788;28;20122;-87
2022/11/16 11:53:32;;;;;;;6.13;1.48;;;;;;;11.74;90.20;99810.94;5051911;28;20044;-87
2022/11/16 11:56:05;;;;;;;8.23;1.00;;;;;;;12.87;89.32;99790.63;5052736;28;20051;-87
2022/11/16 11:58:37;;;;;;;9.45;1.13;;;;;;;15.78;79.51;99782.44;5086526;28;20040;-87
2022/11/16 12:01:40;;;;;;;6.30;1.00;;;;;;;18.99;72.33;99787.88;5115056;28;20046;-88
2022/11/16 12:04:22;;;;;;;5.47;1.00;;;;;;;20.66;60.35;99789.84;5114878;28;20483;-88
2022/11/16 12:07:20;;;;;;;6.47;1.17;;;;;;;21.88;62.73;99787.22;5115458;28;20036;-87
2022/11/16 12:10:38;;;;;;;7.60;1.08;;;;;;;21.81;62.79;99781.34;5113545;28;20379;-87
2022/11/16 12:13:33;;;;;;;6.03;1.38;;;;;;;22.58;54.96;99775.63;5113718;28;20105;-87
2022/11/16 12:16:59;;;;;;;5.60;1.40;;;;;;;25.67;53.75;99759.81;5113323;28;20583;-87
2022/11/16 12:19:37;;;;;;;2.53;1.13;;;;;;;27.24;38.73;99764.34;5044849;28;20398;-88
2022/11/16 12:22:24;;;;;;;4.55;1.50;;;;;;;28.00;45.32;99751.31;5115053;28;20046;-88
2022/11/16 12:25:11;;;;;;;6.82;1.48;;;;;;;28.37;47.99;99758.56;5113087;28;20058;-88
2022/11/16 12:27:52;;;;;;;5.43;1.50;;;;;;;28.81;37.68;99750.00;5114885;28;20039;-88
2022/11/16 12:30:24;;;;;;;4.97;1.50;;;;;;;27.68;33.60;99750.44;5113727;28;20130;-88
2022/11/16 12:33:09;;;;;;;3.90;1.40;;;;;;;27.74;43.31;99748.22;5113471;28;20480;-88
2022/11/16 12:35:52;;;;;;;6.55;1.60;;;;;;;28.55;35.75;99739.44;5113716;28;20035;-88
2022/11/16 12:38:38;;;;;;;4.25;1.58;;;;;;;27.61;37.15;99734.38;5113352;28;20047;-89
2022/11/16 12:41:41;;;;;;;6.18;1.60;;;;;;;27.79;40.86;99731.25;5112812;28;20040;-90
2022/11/16 12:44:28;;;;;;;5.43;1.52;;;;;;;29.08;32.95;99713.84;5114580;28;20074;-90
2022/11/16 12:47:27;;;;;;;3.77;1.70;;;;;;;28.17;35.90;99715.88;5113020;28;20403;-90
2022/11/16 12:50:11;;;;;;;5.03;1.60;;;;;;;28.77;35.23;99712.03;5113835;28;20483;-90
2022/11/16 12:53:06;;;;;;;;;;;;;;;;;;;;;
2022/11/16 12:56:03;;;;;;;6.10;1.80;;;;;;;31.35;30.52;99703.38;5115366;28;20051;-90
2022/11/16 12:59:11;;;;;;;6.05;1.83;;;;;;;30.08;34.15;99698.09;5112706;28;20059;-90
2022/11/16 13:07:55;;;;;;;5.05;1.80;;;;;;;27.42;32.51;99678.56;5114152;28;20047;-90
2022/11/16 13:10:46;;;;;;;3.95;1.35;;;;;;;26.19;35.92;99682.53;5095281;28;20039;-89
2022/11/16 13:16:23;;;;;;;6.30;1.67;;;;;;;25.68;34.18;99680.91;5012113;28;20084;-89
2022/11/16 13:22:22;;;;;;;3.50;1.58;;;;;;;28.24;32.69;99668.63;5117088;28;20126;-90
2022/11/16 13:25:01;;;;;;;6.82;1.52;;;;;;;28.86;29.91;99668.78;5115176;28;20035;-90
2022/11/16 13:27:42;;;;;;;5.57;1.75;;;;;;;29.23;29.86;99673.09;5115330;28;20103;-90
2022/11/16 13:30:27;;;;;;;7.30;2.20;;;;;;;29.17;30.70;99678.16;5112956;28;20079;-89
2022/11/16 13:36:47;;;;;;;4.85;1.90;;;;;;;28.92;33.47;99672.06;5074883;28;20079;-89
2022/11/16 13:46:44;;;;;;;5.03;1.83;;;;;;;30.81;28.51;99679.53;5111817;28;20034;-89
2022/11/16 13:52:44;;;;;;;6.05;2.13;;;;;;;31.81;27.77;99669.34;5114049;28;20058;-89
2022/11/16 13:58:56;;;;;;;;;;;;;;;;;;;;;
2022/11/16 14:01:26;;;;;;;5.47;1.60;;;;;;;26.16;31.13;99658.22;5115986;28;20035;-89
2022/11/16 14:07:35;;;;;;;4.28;1.75;;;;;;;22.49;39.75;99665.06;5117717;28;20030;-88
2022/11/16 14:10:11;;;;;;;6.43;1.60;;;;;;;21.32;39.44;99661.75;5099828;28;20040;-88
2022/11/16 14:12:39;;;;;;;6.55;1.70;;;;;;;20.62;40.87;99664.00;5100310;28;20039;-87
2022/11/16 14:15:25;;;;;;;3.87;1.50;;;;;;;20.51;41.81;99658.72;5118986;28;20035;-96
2022/11/16 14:17:56;;;;;;;4.57;1.52;;;;;;;19.70;43.19;99659.31;5100903;28;20104;-89
2022/11/16 14:20:37;;;;;;;6.35;1.65;;;;;;;19.30;45.16;99647.16;5099786;28;20032;-89
2022/11/16 14:23:02;;;;;;;3.28;1.35;;;;;;;18.68;45.12;99650.91;5116826;28;20050;-88
2022/11/16 14:25:51;;;;;;;5.37;1.30;;;;;;;18.70;45.66;99640.44;5116751;28;20035;-88
2022/11/16 14:28:39;;;;;;;4.75;1.40;;;;;;;19.04;45.66;99639.34;5098956;28;20035;-88
2022/11/16 14:31:08;;;;;;;6.10;1.55;;;;;;;19.14;44.57;99638.38;5100251;28;20031;-88
2022/11/16 14:33:36;;;;;;;7.77;1.47;;;;;;;19.30;44.25;99638.91;5116939;28;20028;-87
2022/11/16 14:36:08;;;;;;;6.40;1.63;;;;;;;18.96;44.76;99640.88;5115899;28;20088;-88
2022/11/16 14:38:46;;;;;;;5.50;1.60;;;;;;;18.85;46.19;99631.13;5099386;28;20042;-88
2022/11/16 14:41:23;;;;;;;4.85;1.30;;;;;;;19.00;45.42;99628.16;5098559;28;20035;-87
2022/11/16 14:43:55;;;;;;;8.38;1.55;;;;;;;18.66;45.77;99620.16;5115468;28;20038;-88
2022/11/16 14:46:33;;;;;;;4.80;1.30;;;;;;;18.38;46.84;99629.13;5116584;28;20059;-87
2022/11/16 14:49:00;;;;;;;5.47;1.33;;;;;;;18.87;45.74;99624.25;5132907;27;20042;-88
2022/11/16 14:51:28;;;;;;;6.75;1.50;;;;;;;19.14;44.87;99624.63;5116113;28;20134;-87
2022/11/16 14:53:58;;;;;;;7.97;1.70;;;;;;;18.80;45.85;99618.28;5115502;28;20054;-87
2022/11/16 14:56:25;;;;;;;5.68;1.70;;;;;;;18.44;46.62;99620.78;5116951;28;20081;-88
2022/11/16 14:58:52;;;;;;;4.47;1.30;;;;;;;17.83;48.10;99618.59;5097727;28;20102;-87
2022/11/16 15:01:21;;;;;;;4.97;1.40;;;;;;;17.34;48.94;99611.47;5116563;27;20028;-88
2022/11/16 15:03:53;;;;;;;9.15;1.63;;;;;;;16.91;51.03;99617.63;5132015;27;20043;-87
2022/11/16 15:06:20;;;;;;;6.18;1.48;;;;;;;16.38;52.14;99612.00;5117191;28;20118;-88
2022/11/16 15:08:55;;;;;;;10.13;1.80;;;;;;;15.94;53.15;99602.69;5114741;28;20144;-87
2022/11/16 15:14:21;;;;;;;4.18;1.15;;;;;;;15.17;55.68;99611.13;5116384;28;20038;-87
2022/11/16 15:16:57;;;;;;;5.75;1.20;;;;;;;14.79;57.05;99608.69;5115266;28;20180;-86
2022/11/16 15:19:23;;;;;;;6.65;1.70;;;;;;;14.38;58.24;99592.31;5131664;27;20048;-89
2022/11/16 15:21:53;;;;;;;6.45;1.50;;;;;;;14.09;60.08;99570.16;5114907;28;20069;-86
2022/11/16 15:24:32;;;;;;;7.20;1.27;;;;;;;13.80;60.90;99574.19;5114563;28;20032;-87
2022/11/16 15:27:11;;;;;;;8.45;1.27;;;;;;;13.54;61.62;99597.78;5114676;28;20423;-86
2022/11/16 15:29:36;;;;;;;10.82;1.70;;;;;;;13.20;63.63;99602.75;5115559;28;20380;-87
2022/11/16 15:32:08;;;;;;;8.07;1.40;;;;;;;12.92;64.25;99583.78;5114667;28;20391;-86
2022/11/16 15:34:33;;;;;;;7.13;1.77;;;;;;;12.72;65.63;99581.72;5115940;28;20036;-87
2022/11/16 15:36:59;;;;;;;10.45;1.30;;;;;;;12.64;66.14;99595.84;5114808;28;20040;-87
2022/11/16 15:39:33;;;;;;;8.40;2.80;;;;;;;12.46;67.42;99591.59;5114033;28;20413;-87
2022/11/16 15:41:58;;;;;;;8.65;3.17;;;;;;;12.28;68.09;99571.84;5114428;28;20039;-87
2022/11/16 15:44:25;;;;;;;11.25;1.50;;;;;;;12.13;69.57;99577.13;5114513;28;20097;-86
2022/11/16 15:46:54;;;;;;;6.83;1.20;;;;;;;11.98;70.64;99563.41;5114404;28;20404;-86
2022/11/16 15:49:34;;;;;;;11.23;1.75;;;;;;;11.83;71.08;99558.59;5113876;28;20096;-86
2022/11/16 15:52:00;;;;;;;5.80;1.45;;;;;;;11.65;71.69;99559.72;5114248;28;20040;-86
2022/11/16 15:54:29;;;;;;;4.07;1.02;;;;;;;11.47;72.19;99556.28;5131120;27;20039;-87
2022/11/16 15:57:03;;;;;;;8.52;1.45;;;;;;;11.31;73.74;99549.00;5130684;27;20043;-86
2022/11/16 15:59:34;;;;;;;9.27;0.97;;;;;;;11.16;74.15;99550.47;5131192;27;20106;-86
2022/11/16 16:02:08;;;;;;;5.05;1.05;;;;;;;11.11;75.27;99542.22;5131010;27;20043;-88
2022/11/16 16:04:33;;;;;;;7.18;1.25;;;;;;;10.96;75.79;99534.69;5114259;28;20058;-85
2022/11/16 16:06:59;;;;;;;7.83;1.30;;;;;;;10.82;76.99;99522.56;5113929;28;20460;-86
2022/11/16 16:09:36;;;;;;;7.43;1.00;;;;;;;10.77;77.18;99519.78;5130709;27;20392;-86
2022/11/16 16:12:22;;;;;;;11.80;1.85;;;;;;;10.67;76.72;99518.56;5114890;28;20039;-86
2022/11/16 16:14:48;;;;;;;8.82;1.92;;;;;;;10.53;78.86;99517.25;5113597;28;20042;-86
2022/11/16 16:17:26;;;;;;;11.40;1.07;;;;;;;10.45;79.07;99525.81;5114908;28;20035;-87
2022/11/16 16:19:55;;;;;;;5.68;1.50;;;;;;;10.33;80.74;99510.47;5130472;27;20040;-86
2022/11/16 16:22:27;;;;;;;9.20;1.67;;;;;;;10.27;80.96;99516.81;5130581;27;20419;-86
2022/11/16 16:24:53;;;;;;;7.80;1.27;;;;;;;10.18;82.35;99521.00;5113855;28;20501;-86
2022/11/16 16:27:21;;;;;;;6.97;1.60;;;;;;;10.10;82.76;99514.09;5130424;27;20416;-86
2022/11/16 16:29:52;;;;;;;7.60;1.73;;;;;;;9.98;83.42;99513.31;5130388;27;20027;-86
2022/11/16 16:32:25;;;;;;;6.13;1.70;;;;;;;9.95;83.08;99530.06;5113253;28;20061;-86
2022/11/16 16:34:52;;;;;;;14.00;2.03;;;;;;;9.87;83.82;99531.28;5114463;28;20067;-86
2022/11/16 16:37:18;;;;;;;17.25;2.50;;;;;;;9.82;84.29;99523.09;5129868;27;20039;-86
2022/11/16 16:39:43;;;;;;;11.97;2.70;;;;;;;9.75;84.94;99519.69;5096091;28;20074;-86
2022/11/16 16:42:11;;;;;;;22.07;3.30;;;;;;;9.72;85.61;99517.47;5114305;28;20035;-86
2022/11/16 16:44:37;;;;;;;29.10;3.53;;;;;;;9.68;85.90;99511.72;5112723;28;20034;-86
2022/11/16 16:47:05;;;;;;;30.30;4.93;;;;;;;9.68;86.25;99510.91;5129422;27;20059;-86
2022/11/16 16:49:31;;;;;;;28.33;4.38;;;;;;;9.64;85.81;99500.56;5114213;28;20094;-86
2022/11/16 16:52:00;;;;;;;29.17;4.73;;;;;;;9.69;85.51;99505.25;5113282;28;20443;-86
2022/11/16 16:54:27;;;;;;;31.88;4.78;;;;;;;9.53;86.69;99495.19;5129655;27;20047;-85
2022/11/16 16:56:56;;;;;;;27.40;4.47;;;;;;;9.45;87.00;99480.97;5112351;28;20097;-86
2022/11/16 16:59:23;;;;;;;19.33;3.50;;;;;;;9.43;86.99;99479.56;5113013;28;20040;-86
2022/11/16 17:01:49;;;;;;;23.75;3.45;;;;;;;9.43;87.56;99490.38;5113640;28;20043;-86